createdAt,value
2017-06-20T12:12:35.969Z,6722.2
2017-06-20T12:12:53.249Z,10106.2
2017-06-20T12:13:54.888Z,10106.5
2017-06-20T12:14:56.550Z,10106.5
2017-06-20T12:15:58.199Z,10106.1
2017-06-20T12:17:00.168Z,10106.6
2017-06-20T12:17:40.907Z,1010.6
2017-06-20T12:17:48.853Z,1010.7
2017-06-20T12:18:50.483Z,1010.7
2017-06-20T12:19:52.131Z,1010.7
2017-06-20T12:20:53.759Z,1010.7
2017-06-20T12:21:55.379Z,1010.7
2017-06-20T12:22:57.072Z,1010.7
2017-06-20T12:23:59.031Z,1010.7
2017-06-20T12:25:01.348Z,1010.7
2017-06-20T12:26:02.968Z,1010.7
2017-06-20T12:27:04.590Z,1010.7
2017-06-20T12:28:06.216Z,1010.7
2017-06-20T12:29:07.854Z,1010.7
2017-06-20T12:29:55.513Z,1010.7
2017-06-20T12:30:04.418Z,1010.7
2017-06-20T12:30:26.306Z,1010.7
2017-06-20T12:30:49.795Z,1010.6
2017-06-20T13:00:06.075Z,1010.7
2017-06-20T13:00:11.925Z,1010.7
2017-06-20T13:01:14.204Z,1010.6
2017-06-20T13:02:16.669Z,1010.6
2017-06-20T13:03:18.670Z,1010.7
2017-06-20T13:04:20.689Z,1010.6
2017-06-20T13:05:17.513Z,1010.6
2017-06-20T13:06:19.525Z,1010.6
2017-06-20T13:06:43.257Z,1010.6
2017-06-20T13:07:45.404Z,1010.6
2017-06-20T13:07:55.944Z,1010.6
2017-06-20T13:08:58.552Z,1010.6
2017-06-20T13:10:00.561Z,1010.6
2017-06-20T13:11:02.581Z,1010.6
2017-06-20T13:23:21.952Z,1010.6
2017-06-20T13:24:17.691Z,1010.5
2017-06-20T13:25:19.739Z,1010.6
2017-06-20T13:26:21.839Z,1010.5
2017-06-20T13:27:23.850Z,1010.5
2017-06-20T13:28:25.870Z,1010.6
2017-06-20T13:29:28.042Z,1010.5
2017-06-20T13:30:30.053Z,1010.5
2017-06-20T13:31:32.511Z,1010.5
2017-06-20T13:32:34.549Z,1010.5
2017-06-20T13:33:36.558Z,1010.5
2017-06-20T13:40:49.542Z,1010.5
2017-06-20T13:40:55.721Z,1010.5
2017-06-20T13:41:58.285Z,1010.5
2017-06-20T13:43:00.773Z,1010.5
2017-06-20T13:44:02.784Z,1010.5
2017-06-20T13:44:17.845Z,1010.5
2017-06-20T13:45:19.876Z,1010.5
2017-06-20T13:46:21.888Z,1010.5
2017-06-20T13:47:23.930Z,1010.5
2017-06-20T13:48:25.949Z,1010.5
2017-06-20T13:49:27.968Z,1010.5
2017-06-20T13:50:30.491Z,1010.5
2017-06-20T13:51:32.901Z,1010.5
2017-06-20T13:52:34.925Z,1010.5
2017-06-20T13:53:36.931Z,1010.6
2017-06-20T13:54:38.942Z,1010.6
2017-06-20T13:55:41.000Z,1010.6
2017-06-20T13:56:43.079Z,1010.6
2017-06-20T13:57:45.430Z,1010.6
2017-06-20T13:58:47.580Z,1010.6
2017-06-20T13:59:49.679Z,1010.6
2017-06-20T14:00:51.694Z,1010.6
2017-06-20T14:01:53.701Z,1010.6
2017-06-20T14:02:55.719Z,1010.6
2017-06-20T14:03:03.263Z,1010.6
2017-06-20T14:03:55.171Z,1010.6
2017-06-20T14:04:57.183Z,1010.5
2017-06-20T14:05:59.206Z,1010.6
2017-06-20T14:07:01.215Z,1010.6
2017-06-20T14:08:03.286Z,1010.6
2017-06-20T14:09:05.312Z,1010.6
2017-06-20T14:10:07.344Z,1010.6
2017-06-20T14:11:09.478Z,1010.6
2017-06-20T14:12:11.508Z,1010.6
2017-06-20T14:13:14.043Z,1010.6
2017-06-20T14:14:16.054Z,1010.6
2017-06-20T14:15:18.071Z,1010.6
2017-06-20T14:16:20.097Z,1010.6
2017-06-20T14:17:22.135Z,1010.6
2017-06-20T14:18:24.152Z,1010.6
2017-06-20T14:19:26.190Z,1010.7
2017-06-20T14:20:28.540Z,1010.6
2017-06-20T14:21:30.890Z,1010.6
2017-06-20T14:22:33.265Z,1010.6
2017-06-20T14:23:35.624Z,1010.6
2017-06-20T14:24:37.644Z,1010.7
2017-06-20T14:25:39.657Z,1010.6
2017-06-20T14:26:41.726Z,1010.6
2017-06-20T14:27:43.759Z,1010.6
2017-06-20T14:28:45.753Z,1010.6
2017-06-20T14:29:48.237Z,1010.5
2017-06-20T14:30:50.263Z,1010.6
2017-06-20T14:31:52.270Z,1010.6
2017-06-20T14:32:54.286Z,1010.5
2017-06-20T14:33:56.306Z,1010.5
2017-06-20T14:34:58.347Z,1010.6
2017-06-20T14:36:00.351Z,1010.5
2017-06-20T14:37:02.378Z,1010.5
2017-06-20T14:38:05.228Z,1010.5
2017-06-20T14:39:07.254Z,1010.5
2017-06-20T14:40:09.262Z,1010.6
2017-06-20T14:41:11.282Z,1010.6
2017-06-20T14:42:13.292Z,1010.5
2017-06-20T14:43:15.328Z,1010.5
2017-06-20T14:44:17.344Z,1010.5
2017-06-20T16:24:16.562Z,672.2
2017-06-20T16:25:02.560Z,1010.4
2017-06-20T16:25:21.787Z,1010.4
2017-06-20T16:26:23.802Z,1010.4
2017-06-20T16:27:25.830Z,1010.4
2017-06-20T16:28:28.854Z,1010.4
2017-06-20T16:29:31.703Z,1010.4
2017-06-20T16:30:33.728Z,1010.4
2017-06-20T16:31:19.724Z,1010.4
2017-06-20T16:31:25.222Z,1010.4
2017-06-20T16:32:27.260Z,1010.4
2017-06-20T16:33:29.301Z,1010.4
2017-06-20T16:34:06.615Z,1010.4
2017-06-20T16:34:24.647Z,1010.4
2017-06-20T16:35:26.693Z,1010.4
2017-06-20T16:36:28.734Z,1010.4
2017-06-20T16:37:30.770Z,1010.4
2017-06-20T16:38:33.154Z,1010.4
2017-06-20T16:39:30.975Z,1010.4
2017-06-20T16:40:33.376Z,1010.4
2017-06-20T16:40:50.719Z,1010.4
2017-06-20T16:41:14.486Z,1010.4
2017-06-20T16:42:16.546Z,1010.4
2017-06-20T16:43:19.170Z,1010.4
2017-06-20T16:44:21.215Z,1010.4
2017-06-20T16:45:23.254Z,1010.4
2017-06-20T16:46:25.294Z,1010.4
2017-06-20T16:47:27.332Z,1010.4
2017-06-20T16:48:29.370Z,1010.4
2017-06-20T21:38:34.276Z,1011.5
2017-06-20T21:38:54.213Z,1011.5
2017-06-20T21:39:56.891Z,1011.5
2017-06-20T21:40:58.994Z,1011.5
2017-06-20T21:42:01.093Z,1011.5
2017-06-20T21:43:03.185Z,1011.5
2017-06-20T21:44:05.291Z,1011.5
2017-06-20T21:45:07.378Z,1011.5
2017-06-20T21:45:36.079Z,1011.5
2017-06-20T21:45:59.132Z,1011.5
2017-06-20T21:46:24.655Z,1011.5
2017-06-20T21:47:30.622Z,1011.5
2017-06-20T21:48:18.019Z,1011.5
2017-06-20T21:48:52.537Z,1011.4
2017-06-20T21:49:54.598Z,1011.4
2017-06-20T21:50:50.789Z,1011.4
2017-06-20T21:50:58.296Z,1011.4
2017-06-20T21:52:00.346Z,1011.4
2017-06-20T21:53:07.747Z,1011.4
2017-06-20T21:54:03.763Z,1011.4
2017-06-20T21:54:23.702Z,1011.4
2017-06-20T21:55:25.755Z,1011.4
2017-06-20T21:55:47.228Z,1011.4
2017-06-20T21:55:51.437Z,1011.4
2017-06-20T21:56:55.891Z,1011.5
2017-06-20T21:58:06.364Z,1011.5
2017-06-20T21:59:08.495Z,1011.4
2017-06-20T22:00:10.566Z,1011.4
2017-06-20T22:01:12.635Z,1011.4
2017-06-20T22:02:15.037Z,1011.4
2017-06-20T22:03:18.565Z,1011.4
2017-06-20T22:04:22.699Z,1011.4
2017-06-20T22:05:30.122Z,1011.4
2017-06-20T22:06:34.746Z,1011.4
2017-06-20T22:07:38.218Z,1011.5
2017-06-20T22:08:40.265Z,1011.5
2017-06-20T22:09:43.005Z,1011.5
2017-06-20T22:10:45.052Z,1011.5
2017-06-20T22:11:47.121Z,1011.5
2017-06-20T22:12:49.629Z,1011.5
2017-06-20T22:13:51.673Z,1011.5
2017-06-20T22:14:53.731Z,1011.5
2017-06-20T22:15:56.133Z,1011.5
2017-06-20T22:16:58.729Z,1011.5
2017-06-20T22:18:00.780Z,1011.4
2017-06-20T22:19:02.861Z,1011.5
2017-06-20T22:20:04.941Z,1011.5
2017-06-20T22:21:07.031Z,1011.5
2017-06-20T22:22:09.082Z,1011.5
2017-06-20T22:23:11.592Z,1011.5
2017-06-20T22:24:13.647Z,1011.5
2017-06-20T22:25:15.691Z,1011.5
2017-06-20T22:26:17.756Z,1011.5
2017-06-20T22:27:19.800Z,1011.6
2017-06-20T22:28:21.866Z,1011.5
2017-06-20T22:29:23.941Z,1011.5
2017-06-20T22:30:25.994Z,1011.5
2017-06-20T22:31:28.045Z,1011.6
2017-06-20T22:32:30.299Z,1011.6
2017-06-20T22:33:32.377Z,1011.6
2017-06-20T22:34:34.431Z,1011.6
2017-06-20T22:35:36.499Z,1011.5
2017-06-20T22:36:38.612Z,1011.6
2017-06-20T22:37:40.851Z,1011.5
2017-06-20T22:38:42.904Z,1011.5
2017-06-20T22:39:45.295Z,1011.5
2017-06-20T22:40:47.361Z,1011.5
2017-06-20T22:41:49.414Z,1011.5
2017-06-20T22:42:51.450Z,1011.5
2017-06-20T22:43:53.542Z,1011.5
2017-06-20T22:44:55.576Z,1011.5
2017-06-20T22:45:57.634Z,1011.5
2017-06-20T22:46:59.718Z,1011.5
2017-06-20T22:48:01.761Z,1011.5
2017-06-20T22:49:03.813Z,1011.5
2017-06-20T22:50:05.887Z,1011.5
2017-06-20T22:51:07.959Z,1011.5
2017-06-20T22:52:10.217Z,1011.5
2017-06-20T22:53:12.521Z,1011.5
2017-06-20T22:54:15.017Z,1011.5
2017-06-20T22:55:17.072Z,1011.4
2017-06-20T22:56:19.137Z,1011.5
2017-06-20T22:57:21.183Z,1011.4
2017-06-20T22:58:23.253Z,1011.4
2017-06-20T22:59:25.306Z,1011.5
2017-06-20T23:00:27.704Z,1011.4
2017-06-20T23:01:29.770Z,1011.5
2017-06-20T23:02:31.919Z,1011.5
2017-06-20T23:03:34.182Z,1011.5
2017-06-20T23:04:36.231Z,1011.5
2017-06-20T23:05:38.287Z,1011.5
2017-06-20T23:06:40.357Z,1011.5
2017-06-20T23:07:42.740Z,1011.5
2017-06-20T23:08:44.800Z,1011.5
2017-06-20T23:09:46.846Z,1011.5
2017-06-20T23:10:48.910Z,1011.5
2017-06-20T23:11:50.961Z,1011.6
2017-06-20T23:12:53.197Z,1011.5
2017-06-20T23:13:55.256Z,1011.5
2017-06-20T23:14:57.641Z,1011.5
2017-06-20T23:15:59.688Z,1011.5
2017-06-20T23:17:01.735Z,1011.5
2017-06-20T23:18:03.765Z,1011.5
2017-06-20T23:19:05.812Z,1011.5
2017-06-20T23:20:08.221Z,1011.5
2017-06-20T23:21:10.254Z,1011.5
2017-06-20T23:22:12.836Z,1011.5
2017-06-20T23:23:14.905Z,1011.5
2017-06-20T23:24:17.297Z,1011.5
2017-06-20T23:25:19.881Z,1011.5
2017-06-20T23:26:21.926Z,1011.5
2017-06-20T23:27:24.555Z,1011.5
2017-06-20T23:28:26.599Z,1011.5
2017-06-20T23:29:28.634Z,1011.5
2017-06-20T23:30:30.682Z,1011.5
2017-06-20T23:31:33.097Z,1011.6
2017-06-20T23:32:35.139Z,1011.5
2017-06-20T23:33:37.192Z,1011.6
2017-06-20T23:34:39.239Z,1011.5
2017-06-20T23:35:41.317Z,1011.5
2017-06-20T23:36:43.414Z,1011.5
2017-06-20T23:37:45.801Z,1011.5
2017-06-20T23:38:47.841Z,1011.5
2017-06-20T23:39:50.232Z,1011.5
2017-06-20T23:40:52.260Z,1011.5
2017-06-20T23:41:54.461Z,1011.5
2017-06-20T23:42:56.492Z,1011.5
2017-06-20T23:43:59.074Z,1011.5
2017-06-20T23:45:01.123Z,1011.5
2017-06-20T23:46:03.220Z,1011.5
2017-06-20T23:47:05.282Z,1011.5
2017-06-20T23:48:07.341Z,1011.5
2017-06-20T23:49:09.395Z,1011.5
2017-06-20T23:50:11.484Z,1011.5
2017-06-20T23:51:13.841Z,1011.5
2017-06-20T23:52:15.911Z,1011.5
2017-06-20T23:53:17.955Z,1011.5
2017-06-20T23:54:20.344Z,1011.5
2017-06-20T23:55:22.401Z,1011.5
2017-06-20T23:56:24.463Z,1011.5
2017-06-20T23:57:26.517Z,1011.5
2017-06-20T23:58:28.728Z,1011.5
2017-06-20T23:59:30.995Z,1011.5
